Time;durP1;ratioP1;P1;durP2;ratioP2;P2;SDS_P1;SDS_P2;PMS_P1;PMS_P2;Temp;Humidity;BMP_temperature;BMP_pressure;BME280_temperature;BME280_humidity;BME280_pressure;Samples;Min_cycle;Max_cycle;Signal;HPM_P1;HPM_P2
2022/10/14 00:01:25;;;;;;;;;;;;;;;;;;5060895;28;1040;-69
2022/10/14 00:03:51;;;;;;;;;;;;;;;;;;5060989;28;794;-69
2022/10/14 00:06:18;;;;;;;;;;;;;;;;;;5060144;28;1971;-70
2022/10/14 00:08:43;;;;;;;;;;;;;;;;;;5061218;28;909;-69
2022/10/14 00:11:10;;;;;;;;;;;;;;;;;;5060791;28;847;-69
2022/10/14 00:13:36;;;;;;;;;;;;;;;;;;5060807;28;795;-70
2022/10/14 00:16:02;;;;;;;;;;;;;;;;;;5060372;28;1283;-69
2022/10/14 00:18:27;;;;;;;;;;;;;;;;;;5060954;28;1013;-69
2022/10/14 00:20:53;;;;;;;;;;;;;;;;;;5060459;28;894;-69
2022/10/14 00:23:18;;;;;;;;;;;;;;;;;;5060930;28;839;-69
2022/10/14 00:25:44;;;;;;;;;;;;;;;;;;5060176;28;1959;-69
2022/10/14 00:28:09;;;;;;;;;;;;;;;;;;5060643;28;1051;-70
2022/10/14 00:30:34;;;;;;;;;;;;;;;;;;5042778;28;803;-69
2022/10/14 00:32:59;;;;;;;;;;;;;;;;;;5060683;28;862;-69
2022/10/14 00:35:25;;;;;;;;;;;;;;;;;;5060133;28;1247;-69
2022/10/14 00:37:50;;;;;;;;;;;;;;;;;;5060529;28;819;-70
2022/10/14 00:40:15;;;;;;;;;;;;;;;;;;5060492;28;858;-69
2022/10/14 00:42:40;;;;;;;;;;;;;;;;;;5060310;28;807;-70
2022/10/14 00:45:10;;;;;;;;;;;;;;;;;;5044450;28;1947;-70
2022/10/14 00:47:36;;;;;;;;;;;;;;;;;;5063830;28;828;-70
2022/10/14 00:50:01;;;;;;;;;;;;;;;;;;5063942;28;961;-70
2022/10/14 00:52:27;;;;;;;;;;;;;;;;;;5063672;28;882;-70
2022/10/14 00:54:54;;;;;;;;;;;;;;;;;;5063620;28;886;-70
2022/10/14 00:57:20;;;;;;;;;;;;;;;;;;5078017;22;3927;-64
2022/10/14 00:59:45;;;;;;;;;;;;;;;;;;5063947;28;853;-64
2022/10/14 01:02:11;;;;;;;;;;;;;;;;;;5063520;28;875;-64
2022/10/14 01:04:37;;;;;;;;;;;;;;;;;;5062220;28;977;-64
2022/10/14 01:07:21;;;;;;;;;;;;;;;;;;5063395;28;1921;-64
2022/10/14 01:09:58;;;;;;;;;;;;;;;;;;5063678;28;934;-64
2022/10/14 01:12:35;;;;;;;;;;;;;;;;;;5063479;28;862;-64
2022/10/14 01:15:21;;;;;;;;;;;;;;;;;;5063811;28;850;-64
2022/10/14 01:17:57;;;;;;;;;;;;;;;;;;5063521;28;1156;-64
2022/10/14 01:20:33;;;;;;;;;;;;;;;;;;5063440;28;917;-64
2022/10/14 01:23:07;;;;;;;;;;;;;;;;;;5063056;28;902;-64
2022/10/14 01:25:33;;;;;;;;;;;;;;;;;;5063067;28;1894;-64
2022/10/14 01:28:05;;;;;;;;;;;;;;;;;;5063102;28;1236;-64
2022/10/14 01:30:34;;;;;;;;;;;;;;;;;;5063402;28;970;-64
2022/10/14 01:33:07;;;;;;;;;;;;;;;;;;5063113;28;914;-64
2022/10/14 01:35:42;;;;;;;;;;;;;;;;;;5062900;28;957;-65
2022/10/14 01:38:11;;;;;;;;;;;;;;;;;;5061987;28;889;-64
2022/10/14 01:40:39;;;;;;;;;;;;;;;;;;5063341;28;973;-65
2022/10/14 01:43:05;;;;;;;;;;;;;;;;;;5062931;28;897;-65
2022/10/14 01:45:32;;;;;;;;;;;;;;;;;;5062725;28;1894;-65
2022/10/14 01:47:57;;;;;;;;;;;;;;;;;;5062887;28;1180;-64
2022/10/14 01:50:24;;;;;;;;;;;;;;;;;;5063237;28;881;-64
2022/10/14 01:52:51;;;;;;;;;;;;;;;;;;5063096;28;858;-64
2022/10/14 01:55:19;;;;;;;;;;;;;;;;;;5062228;28;1007;-64
2022/10/14 01:57:46;;;;;;;;;;;;;;;;;;5061399;28;1172;-64
2022/10/14 02:00:11;;;;;;;;;;;;;;;;;;5062871;28;806;-64
2022/10/14 02:02:37;;;;;;;;;;;;;;;;;;5062652;28;1101;-64
2022/10/14 02:05:07;;;;;;;;;;;;;;;;;;5062472;28;981;-64
2022/10/14 02:07:38;;;;;;;;;;;;;;;;;;5061620;28;1554;-64
2022/10/14 02:10:16;;;;;;;;;;;;;;;;;;5063055;28;845;-64
2022/10/14 02:12:54;;;;;;;;;;;;;;;;;;5062594;28;815;-64
2022/10/14 02:15:28;;;;;;;;;;;;;;;;;;5062287;28;893;-65
2022/10/14 02:18:09;;;;;;;;;;;;;;;;;;5062588;28;1176;-64
2022/10/14 02:20:37;;;;;;;;;;;;;;;;;;5062646;28;827;-64
2022/10/14 02:23:09;;;;;;;;;;;;;;;;;;5062368;28;1005;-64
2022/10/14 02:25:36;;;;;;;;;;;;;;;;;;5062097;28;1889;-64
2022/10/14 02:28:02;;;;;;;;;;;;;;;;;;5062284;28;1196;-64
2022/10/14 02:30:28;;;;;;;;;;;;;;;;;;5062435;28;1009;-64
2022/10/14 02:32:55;;;;;;;;;;;;;;;;;;5062100;28;898;-64
2022/10/14 02:35:22;;;;;;;;;;;;;;;;;;5061990;28;894;-64
2022/10/14 02:37:48;;;;;;;;;;;;;;;;;;5062182;28;1135;-64
2022/10/14 02:40:15;;;;;;;;;;;;;;;;;;5062296;28;894;-65
2022/10/14 02:42:40;;;;;;;;;;;;;;;;;;5062712;28;826;-64
2022/10/14 02:45:06;;;;;;;;;;;;;;;;;;5061693;28;1910;-64
2022/10/14 02:47:32;;;;;;;;;;;;;;;;;;5062010;28;1371;-64
2022/10/14 02:49:57;;;;;;;;;;;;;;;;;;5061995;28;771;-64
2022/10/14 02:52:22;;;;;;;;;;;;;;;;;;5061952;28;870;-64
2022/10/14 02:54:47;;;;;;;;;;;;;;;;;;5061610;28;807;-64
2022/10/14 02:57:12;;;;;;;;;;;;;;;;;;5061715;28;1223;-64
2022/10/14 02:59:38;;;;;;;;;;;;;;;;;;5062066;28;798;-64
2022/10/14 03:02:04;;;;;;;;;;;;;;;;;;5062069;28;842;-64
2022/10/14 03:04:29;;;;;;;;;;;;;;;;;;5061446;28;830;-64
2022/10/14 03:06:54;;;;;;;;;;;;;;;;;;5060690;28;1961;-64
2022/10/14 03:09:19;;;;;;;;;;;;;;;;;;5061880;28;972;-64
2022/10/14 03:11:44;;;;;;;;;;;;;;;;;;5062121;28;803;-64
2022/10/14 03:14:09;;;;;;;;;;;;;;;;;;5061774;28;1029;-64
2022/10/14 03:16:35;;;;;;;;;;;;;;;;;;5060126;28;1432;-64
2022/10/14 03:19:00;;;;;;;;;;;;;;;;;;5061500;28;1046;-64
2022/10/14 03:21:25;;;;;;;;;;;;;;;;;;5061696;28;850;-64
2022/10/14 03:23:51;;;;;;;;;;;;;;;;;;5061320;28;887;-64
2022/10/14 03:26:16;;;;;;;;;;;;;;;;;;5061068;28;1961;-64
2022/10/14 03:28:42;;;;;;;;;;;;;;;;;;5061486;28;803;-64
2022/10/14 03:31:07;;;;;;;;;;;;;;;;;;5061371;28;850;-64
2022/10/14 03:33:32;;;;;;;;;;;;;;;;;;5060234;28;997;-64
2022/10/14 03:35:57;;;;;;;;;;;;;;;;;;5060869;28;1164;-64
2022/10/14 03:38:22;;;;;;;;;;;;;;;;;;5061361;28;1028;-64
2022/10/14 03:40:47;;;;;;;;;;;;;;;;;;5061251;28;980;-64
2022/10/14 03:43:13;;;;;;;;;;;;;;;;;;5061032;28;913;-64
2022/10/14 03:45:38;;;;;;;;;;;;;;;;;;5060704;28;1952;-64
2022/10/14 03:48:03;;;;;;;;;;;;;;;;;;5061307;28;1184;-65
2022/10/14 03:50:28;;;;;;;;;;;;;;;;;;5061361;28;810;-64
2022/10/14 03:52:53;;;;;;;;;;;;;;;;;;5061104;28;945;-64
2022/10/14 03:55:19;;;;;;;;;;;;;;;;;;5060518;28;889;-64
2022/10/14 03:57:44;;;;;;;;;;;;;;;;;;5060935;28;1176;-64
2022/10/14 04:00:10;;;;;;;;;;;;;;;;;;5060965;28;870;-64
2022/10/14 04:02:35;;;;;;;;;;;;;;;;;;5061003;28;993;-64
2022/10/14 04:05:00;;;;;;;;;;;;;;;;;;5060684;28;799;-64
2022/10/14 04:07:25;;;;;;;;;;;;;;;;;;5060724;28;1963;-64
2022/10/14 04:09:51;;;;;;;;;;;;;;;;;;5060908;28;1036;-64
2022/10/14 04:12:16;;;;;;;;;;;;;;;;;;5060952;28;857;-64
2022/10/14 04:14:41;;;;;;;;;;;;;;;;;;5060684;28;985;-64
2022/10/14 04:17:06;;;;;;;;;;;;;;;;;;5060697;28;1156;-64
2022/10/14 04:19:31;;;;;;;;;;;;;;;;;;5063799;28;981;-64
2022/10/14 04:21:56;;;;;;;;;;;;;;;;;;5064222;28;888;-64
2022/10/14 04:24:22;;;;;;;;;;;;;;;;;;5064293;28;877;-64
2022/10/14 04:26:50;;;;;;;;;;;;;;;;;;5063821;28;1890;-64
2022/10/14 04:29:16;;;;;;;;;;;;;;;;;;5064331;28;795;-64
2022/10/14 04:31:41;;;;;;;;;;;;;;;;;;5064063;28;846;-64
2022/10/14 04:34:06;;;;;;;;;;;;;;;;;;5064230;28;1040;-64
2022/10/14 04:36:31;;;;;;;;;;;;;;;;;;5063612;28;1191;-64
2022/10/14 04:38:56;;;;;;;;;;;;;;;;;;5064349;28;846;-64
2022/10/14 04:41:22;;;;;;;;;;;;;;;;;;5064115;28;1033;-64
2022/10/14 04:43:47;;;;;;;;;;;;;;;;;;5063165;28;880;-64
2022/10/14 04:46:12;;;;;;;;;;;;;;;;;;5061928;28;1897;-64
2022/10/14 04:48:37;;;;;;;;;;;;;;;;;;5063989;28;894;-64
2022/10/14 04:51:02;;;;;;;;;;;;;;;;;;5063873;28;819;-64
2022/10/14 04:53:28;;;;;;;;;;;;;;;;;;5063772;28;1013;-64
2022/10/14 04:55:53;;;;;;;;;;;;;;;;;;5063251;28;1180;-65
2022/10/14 04:58:18;;;;;;;;;;;;;;;;;;5063801;28;985;-64
2022/10/14 05:00:43;;;;;;;;;;;;;;;;;;5063762;28;799;-64
2022/10/14 05:03:08;;;;;;;;;;;;;;;;;;5064327;28;802;-64
2022/10/14 05:05:33;;;;;;;;;;;;;;;;;;5063391;28;1959;-64
2022/10/14 05:07:59;;;;;;;;;;;;;;;;;;5063434;28;1148;-64
2022/10/14 05:10:24;;;;;;;;;;;;;;;;;;5063572;28;1056;-64
2022/10/14 05:12:49;;;;;;;;;;;;;;;;;;5063527;28;941;-64
2022/10/14 05:15:15;;;;;;;;;;;;;;;;;;5063331;28;798;-64
2022/10/14 05:17:43;;;;;;;;;;;;;;;;;;5063520;28;1168;-64
2022/10/14 05:20:08;;;;;;;;;;;;;;;;;;5063568;28;869;-64
2022/10/14 05:22:33;;;;;;;;;;;;;;;;;;5063830;28;1000;-64
2022/10/14 05:24:58;;;;;;;;;;;;;;;;;;5063036;28;1040;-64
2022/10/14 05:27:24;;;;;;;;;;;;;;;;;;5063170;28;1949;-64
2022/10/14 05:29:49;;;;;;;;;;;;;;;;;;5062732;28;815;-64
2022/10/14 05:32:14;;;;;;;;;;;;;;;;;;5063512;28;830;-64
2022/10/14 05:34:39;;;;;;;;;;;;;;;;;;5063087;28;890;-64
2022/10/14 05:37:05;;;;;;;;;;;;;;;;;;5062859;28;1239;-64
2022/10/14 05:39:30;;;;;;;;;;;;;;;;;;5063522;28;1066;-64
2022/10/14 05:41:55;;;;;;;;;;;;;;;;;;5063316;28;941;-64
2022/10/14 05:44:20;;;;;;;;;;;;;;;;;;5063064;28;969;-64
2022/10/14 05:46:45;;;;;;;;;;;;;;;;;;5062661;28;1965;-64
2022/10/14 05:49:11;;;;;;;;;;;;;;;;;;5063021;28;985;-64
2022/10/14 05:51:36;;;;;;;;;;;;;;;;;;5062853;28;890;-64
2022/10/14 05:54:01;;;;;;;;;;;;;;;;;;5062755;28;1048;-64
2022/10/14 05:56:27;;;;;;;;;;;;;;;;;;5062448;28;1188;-64
2022/10/14 05:58:52;;;;;;;;;;;;;;;;;;5062734;28;815;-64
2022/10/14 06:01:17;;;;;;;;;;;;;;;;;;5062809;28;938;-64
2022/10/14 06:03:42;;;;;;;;;;;;;;;;;;5062720;28;1028;-65
2022/10/14 06:06:13;;;;;;;;;;;;;;;;;;5062208;28;1969;-65
2022/10/14 06:08:38;;;;;;;;;;;;;;;;;;5062912;28;882;-64
2022/10/14 06:11:04;;;;;;;;;;;;;;;;;;5062705;28;1032;-64
2022/10/14 06:13:29;;;;;;;;;;;;;;;;;;5062556;28;839;-64
2022/10/14 06:15:54;;;;;;;;;;;;;;;;;;5062188;28;1298;-64
2022/10/14 06:18:20;;;;;;;;;;;;;;;;;;5062543;28;973;-64
2022/10/14 06:20:50;;;;;;;;;;;;;;;;;;5062553;28;940;-65
2022/10/14 06:23:15;;;;;;;;;;;;;;;;;;5062429;28;929;-64
2022/10/14 06:25:40;;;;;;;;;;;;;;;;;;5061792;28;1957;-64
2022/10/14 06:28:05;;;;;;;;;;;;;;;;;;5062304;28;862;-64
2022/10/14 06:30:31;;;;;;;;;;;;;;;;;;5062471;28;978;-64
2022/10/14 06:32:56;;;;;;;;;;;;;;;;;;5062338;28;910;-64
2022/10/14 06:35:22;;;;;;;;;;;;;;;;;;5062005;28;887;-65
2022/10/14 06:37:47;;;;;;;;;;;;;;;;;;5062123;28;1255;-64
2022/10/14 06:40:12;;;;;;;;;;;;;;;;;;5062305;28;922;-64
2022/10/14 06:42:37;;;;;;;;;;;;;;;;;;5062260;28;990;-64
2022/10/14 06:45:03;;;;;;;;;;;;;;;;;;5061914;28;811;-64
2022/10/14 06:47:28;;;;;;;;;;;;;;;;;;5062192;28;1893;-64
2022/10/14 06:49:54;;;;;;;;;;;;;;;;;;5062022;28;823;-64
2022/10/14 06:52:19;;;;;;;;;;;;;;;;;;5062042;28;985;-64
2022/10/14 06:54:44;;;;;;;;;;;;;;;;;;5061665;28;923;-64
2022/10/14 06:57:09;;;;;;;;;;;;;;;;;;5073950;22;3657;-79
2022/10/14 06:59:34;;;;;;;;;;;;;;;;;;5062579;28;845;-79
2022/10/14 07:02:00;;;;;;;;;;;;;;;;;;5061771;28;830;-79
2022/10/14 07:04:25;;;;;;;;;;;;;;;;;;5061570;28;1005;-80
2022/10/14 07:06:50;;;;;;;;;;;;;;;;;;5061452;28;1957;-79
2022/10/14 07:09:16;;;;;;;;;;;;;;;;;;5061978;28;825;-79
2022/10/14 07:11:41;;;;;;;;;;;;;;;;;;5061857;28;878;-79
2022/10/14 07:14:07;;;;;;;;;;;;;;;;;;5061734;28;873;-77
2022/10/14 07:16:32;;;;;;;;;;;;;;;;;;5061370;28;1247;-79
2022/10/14 07:18:57;;;;;;;;;;;;;;;;;;5061697;28;984;-79
2022/10/14 07:21:22;;;;;;;;;;;;;;;;;;5061628;28;822;-79
2022/10/14 07:23:48;;;;;;;;;;;;;;;;;;5061348;28;815;-79
2022/10/14 07:26:13;;;;;;;;;;;;;;;;;;5061082;28;1901;-78
2022/10/14 07:28:38;;;;;;;;;;;;;;;;;;5061640;28;810;-80
2022/10/14 07:31:05;;;;;;;;;;;;;;;;;;5061474;28;787;-79
2022/10/14 07:33:30;;;;;;;;;;;;;;;;;;5060311;28;1294;-79
2022/10/14 07:35:59;;;;;;;;;;;;;;;;;;5061045;28;987;-79
2022/10/14 07:38:24;;;;;;;;;;;;;;;;;;5061454;28;1160;-79
2022/10/14 07:41:00;;;;;;;;;;;;;;;;;;5061389;28;829;-79
2022/10/14 07:43:25;;;;;;;;;;;;;;;;;;5061354;28;858;-79
2022/10/14 07:45:50;;;;;;;;;;;;;;;;;;5060746;28;1902;-79
2022/10/14 07:48:16;;;;;;;;;;;;;;;;;;5061272;28;1145;-79
2022/10/14 07:50:41;;;;;;;;;;;;;;;;;;5060951;28;1000;-78
2022/10/14 07:53:06;;;;;;;;;;;;;;;;;;5060902;28;992;-77
2022/10/14 07:55:31;;;;;;;;;;;;;;;;;;5060648;28;993;-77
2022/10/14 07:57:56;;;;;;;;;;;;;;;;;;5060797;28;1242;-77
2022/10/14 08:00:22;;;;;;;;;;;;;;;;;;5060972;28;942;-77
2022/10/14 08:02:47;;;;;;;;;;;;;;;;;;5061160;28;790;-77
2022/10/14 08:05:12;;;;;;;;;;;;;;;;;;5060502;28;985;-77
2022/10/14 08:07:37;;;;;;;;;;;;;;;;;;5060797;28;1894;-77
2022/10/14 08:10:03;;;;;;;;;;;;;;;;;;5061062;28;803;-77
2022/10/14 08:12:29;;;;;;;;;;;;;;;;;;5061114;28;881;-79
2022/10/14 08:14:56;;;;;;;;;;;;;;;;;;5060621;28;914;-80
2022/10/14 08:17:21;;;;;;;;;;;;;;;;;;5060652;28;1168;-80
2022/10/14 08:19:48;;;;;;;;;;;;;;;;;;5060831;28;874;-79
2022/10/14 08:22:13;;;;;;;;;;;;;;;;;;5060806;28;898;-79
2022/10/14 08:24:38;;;;;;;;;;;;;;;;;;5060527;28;870;-79
2022/10/14 08:27:05;;;;;;;;;;;;;;;;;;5060445;28;1886;-79
2022/10/14 08:29:31;;;;;;;;;;;;;;;;;;5060882;28;814;-79
2022/10/14 08:31:56;;;;;;;;;;;;;;;;;;5060667;28;795;-79
2022/10/14 08:34:23;;;;;;;;;;;;;;;;;;5060577;28;815;-79
2022/10/14 08:36:48;;;;;;;;;;;;;;;;;;5060433;28;1140;-79
2022/10/14 08:39:15;;;;;;;;;;;;;;;;;;5060727;28;814;-79
2022/10/14 08:41:59;;;;;;;;;;;;;;;;;;5060556;28;1033;-79
2022/10/14 08:44:26;;;;;;;;;;;;;;;;;;5060456;28;776;-79
2022/10/14 08:46:53;;;;;;;;;;;;;;;;;;5059968;28;1947;-79
2022/10/14 08:49:22;;;;;;;;;;;;;;;;;;5060498;28;906;-79
2022/10/14 08:51:50;;;;;;;;;;;;;;;;;;5059218;28;1496;-79
2022/10/14 08:54:19;;;;;;;;;;;;;;;;;;5060422;28;834;-79
2022/10/14 08:56:44;;;;;;;;;;;;;;;;;;5059766;28;1164;-79
2022/10/14 08:59:14;;;;;;;;;;;;;;;;;;5060379;28;799;-77
2022/10/14 09:01:46;;;;;;;;;;;;;;;;;;5060300;28;893;-77
2022/10/14 09:04:13;;;;;;;;;;;;;;;;;;5060455;28;917;-79
2022/10/14 09:06:39;;;;;;;;;;;;;;;;;;5062611;28;1960;-78
2022/10/14 09:09:25;;;;;;;;;;;;;;;;;;5063774;28;873;-78
2022/10/14 09:11:53;;;;;;;;;;;;;;;;;;5063467;28;1051;-79
2022/10/14 09:14:19;;;;;;;;;;;;;;;;;;5063618;28;997;-79
2022/10/14 09:16:47;;;;;;;;;;;;;;;;;;5063151;28;1262;-77
2022/10/14 09:19:15;;;;;;;;;;;;;;;;;;5063616;28;810;-77
2022/10/14 09:21:51;;;;;;;;;;;;;;;;;;5063354;28;877;-78
2022/10/14 09:24:19;;;;;;;;;;;;;;;;;;5063397;28;1063;-79
2022/10/14 09:26:46;;;;;;;;;;;;;;;;;;5062237;28;1885;-78
2022/10/14 09:29:14;;;;;;;;;;;;;;;;;;5062115;28;858;-78
2022/10/14 09:31:39;;;;;;;;;;;;;;;;;;5063434;28;1103;-79
2022/10/14 09:34:05;;;;;;;;;;;;;;;;;;5062179;28;940;-77
2022/10/14 09:36:30;;;;;;;;;;;;;;;;;;5062840;28;1184;-79
2022/10/14 09:38:56;;;;;;;;;;;;;;;;;;5062998;28;1060;-79
2022/10/14 09:41:29;;;;;;;;;;;;;;;;;;5063209;28;1012;-79
2022/10/14 09:44:12;;;;;;;;;;;;;;;;;;5063271;28;830;-79
2022/10/14 09:46:38;;;;;;;;;;;;;;;;;;5062699;28;1909;-78
2022/10/14 09:49:03;;;;;;;;;;;;;;;;;;5063040;28;909;-79
2022/10/14 09:51:29;;;;;;;;;;;;;;;;;;5062934;28;803;-78
2022/10/14 09:53:58;;;;;;;;;;;;;;;;;;5063065;28;834;-78
2022/10/14 09:56:28;;;;;;;;;;;;;;;;;;5062466;28;1144;-76
2022/10/14 09:58:55;;;;;;;;;;;;;;;;;;5063198;28;906;-79
2022/10/14 10:01:41;;;;;;;;;;;;;;;;;;5062916;28;940;-79
2022/10/14 10:04:32;;;;;;;;;;;;;;;;;;5062820;28;893;-79
2022/10/14 10:06:59;;;;;;;;;;;;;;;;;;5060472;28;1964;-78
2022/10/14 10:09:25;;;;;;;;;;;;;;;;;;5062716;28;926;-79
2022/10/14 10:11:50;;;;;;;;;;;;;;;;;;5062597;28;1040;-78
2022/10/14 10:14:17;;;;;;;;;;;;;;;;;;5062455;28;897;-79
2022/10/14 10:16:43;;;;;;;;;;;;;;;;;;5061889;28;1226;-79
2022/10/14 10:19:38;;;;;;;;;;;;;;;;;;5062663;28;910;-78
2022/10/14 10:22:21;;;;;;;;;;;;;;;;;;5053558;28;1297;-78
2022/10/14 10:24:47;;;;;;;;;;;;;;;;;;5062112;28;858;-78
2022/10/14 10:27:34;;;;;;;;;;;;;;;;;;5062348;28;1905;-78
2022/10/14 10:30:14;;;;;;;;;;;;;;;;;;5062282;28;1233;-78
2022/10/14 10:32:58;;;;;;;;;;;;;;;;;;5062370;28;1192;-78
2022/10/14 10:35:29;;;;;;;;;;;;;;;;;;5062140;28;917;-78
2022/10/14 10:38:06;;;;;;;;;;;;;;;;;;5062255;28;1251;-77
2022/10/14 10:40:34;;;;;;;;;;;;;;;;;;5062183;28;1056;-77
2022/10/14 10:43:10;;;;;;;;;;;;;;;;;;5062208;28;918;-79
2022/10/14 10:45:44;;;;;;;;;;;;;;;;;;5061476;28;1885;-79
2022/10/14 10:48:23;;;;;;;;;;;;;;;;;;5061917;28;1148;-79
2022/10/14 10:50:57;;;;;;;;;;;;;;;;;;5061965;28;989;-79
2022/10/14 10:53:31;;;;;;;;;;;;;;;;;;5062198;28;842;-79
2022/10/14 10:56:03;;;;;;;;;;;;;;;;;;5061500;28;924;-78
2022/10/14 10:58:46;;;;;;;;;;;;;;;;;;5062216;28;1219;-79
2022/10/14 11:01:20;;;;;;;;;;;;;;;;;;5061883;28;886;-78
2022/10/14 11:03:48;;;;;;;;;;;;;;;;;;5061906;28;1028;-78
2022/10/14 11:12:01;;;;;;;;;;;;;;;;;;5061127;28;1921;-78
2022/10/14 11:12:01;;;;;;;;;;;;;;;;;;5061770;28;629;-78
2022/10/14 11:14:27;;;;;;;;;;;;;;;;;;5061539;28;846;-78
2022/10/14 11:17:00;;;;;;;;;;;;;;;;;;5061503;28;1195;-78
2022/10/14 11:19:40;;;;;;;;;;;;;;;;;;5061725;28;858;-78
2022/10/14 11:22:37;;;;;;;;;;;;;;;;;;5061257;28;905;-78
2022/10/14 11:25:12;;;;;;;;;;;;;;;;;;5061127;28;865;-78
2022/10/14 11:27:56;;;;;;;;;;;;;;;;;;5060322;28;1957;-78
2022/10/14 11:30:24;;;;;;;;;;;;;;;;;;5061540;28;894;-79
2022/10/14 11:32:52;;;;;;;;;;;;;;;;;;5061378;28;996;-78
2022/10/14 11:35:23;;;;;;;;;;;;;;;;;;5061199;28;1040;-78
2022/10/14 11:37:58;;;;;;;;;;;;;;;;;;5061011;28;1246;-79
2022/10/14 11:40:27;;;;;;;;;;;;;;;;;;5061441;28;1021;-79
2022/10/14 11:43:08;;;;;;;;;;;;;;;;;;5061273;28;847;-79
2022/10/14 11:45:40;;;;;;;;;;;;;;;;;;5059872;28;1895;-79
2022/10/14 11:48:17;;;;;;;;;;;;;;;;;;5060973;28;1315;-80
2022/10/14 11:50:45;;;;;;;;;;;;;;;;;;5061166;28;1052;-81
2022/10/14 11:53:24;;;;;;;;;;;;;;;;;;5061173;28;993;-80
2022/10/14 11:55:56;;;;;;;;;;;;;;;;;;5060891;28;953;-79
2022/10/14 11:58:25;;;;;;;;;;;;;;;;;;5060666;28;1215;-79
2022/10/14 12:00:52;;;;;;;;;;;;;;;;;;5061093;28;893;-80
2022/10/14 12:03:26;;;;;;;;;;;;;;;;;;5061054;28;925;-80
2022/10/14 12:05:51;;;;;;;;;;;;;;;;;;5060666;28;1973;-78
2022/10/14 12:08:31;;;;;;;;;;;;;;;;;;5060869;28;1184;-78
2022/10/14 12:11:04;;;;;;;;;;;;;;;;;;5060949;28;917;-78
2022/10/14 12:13:40;;;;;;;;;;;;;;;;;;5060734;28;930;-77
2022/10/14 12:16:09;;;;;;;;;;;;;;;;;;5060616;28;928;-77
2022/10/14 12:18:35;;;;;;;;;;;;;;;;;;5060756;28;932;-77
2022/10/14 12:21:22;;;;;;;;;;;;;;;;;;5060779;28;818;-77
2022/10/14 12:23:50;;;;;;;;;;;;;;;;;;5060716;28;890;-77
2022/10/14 12:26:21;;;;;;;;;;;;;;;;;;5060212;28;1890;-76
2022/10/14 12:28:46;;;;;;;;;;;;;;;;;;5060695;28;1039;-77
2022/10/14 12:31:38;;;;;;;;;;;;;;;;;;5060629;28;894;-77
2022/10/14 12:34:09;;;;;;;;;;;;;;;;;;5058360;28;1204;-77
2022/10/14 12:36:34;;;;;;;;;;;;;;;;;;5060162;28;1269;-78
2022/10/14 12:39:15;;;;;;;;;;;;;;;;;;5061104;28;997;-77
2022/10/14 12:41:42;;;;;;;;;;;;;;;;;;5064223;28;896;-77
2022/10/14 12:44:13;;;;;;;;;;;;;;;;;;5064101;28;791;-77
2022/10/14 12:46:42;;;;;;;;;;;;;;;;;;5063531;28;1967;-77
2022/10/14 12:49:15;;;;;;;;;;;;;;;;;;5063880;28;810;-77
2022/10/14 12:51:51;;;;;;;;;;;;;;;;;;5064087;28;885;-77
2022/10/14 12:54:16;;;;;;;;;;;;;;;;;;5064203;28;790;-77
2022/10/14 12:56:43;;;;;;;;;;;;;;;;;;5076939;22;3768;-75
2022/10/14 12:59:19;;;;;;;;;;;;;;;;;;5022080;28;1975;-75
2022/10/14 13:01:44;;;;;;;;;;;;;;;;;;5023592;28;791;-75
2022/10/14 13:04:17;;;;;;;;;;;;;;;;;;5023305;28;922;-75
2022/10/14 13:06:42;;;;;;;;;;;;;;;;;;5022913;28;1927;-76
2022/10/14 13:09:10;;;;;;;;;;;;;;;;;;5023117;28;1049;-75
2022/10/14 13:11:37;;;;;;;;;;;;;;;;;;5023162;28;994;-75
2022/10/14 13:14:19;;;;;;;;;;;;;;;;;;5023180;28;811;-75
2022/10/14 13:16:45;;;;;;;;;;;;;;;;;;5022899;28;1267;-75
2022/10/14 13:19:30;;;;;;;;;;;;;;;;;;5023079;28;914;-75
2022/10/14 13:21:55;;;;;;;;;;;;;;;;;;5005396;28;1444;-75
2022/10/14 13:24:42;;;;;;;;;;;;;;;;;;5022966;28;936;-75
2022/10/14 13:27:19;;;;;;;;;;;;;;;;;;5022951;28;1902;-75
2022/10/14 13:30:02;;;;;;;;;;;;;;;;;;5023135;28;755;-75
2022/10/14 13:32:42;;;;;;;;;;;;;;;;;;5023014;28;993;-75
2022/10/14 13:35:21;;;;;;;;;;;;;;;;;;5022481;28;1036;-75
2022/10/14 13:37:52;;;;;;;;;;;;;;;;;;5022959;28;1215;-75
2022/10/14 13:40:33;;;;;;;;;;;;;;;;;;5022678;28;906;-75
2022/10/14 13:43:00;;;;;;;;;;;;;;;;;;5022882;28;850;-75
2022/10/14 13:45:33;;;;;;;;;;;;;;;;;;5022454;28;1017;-75
2022/10/14 13:47:58;;;;;;;;;;;;;;;;;;5022842;28;1184;-75
2022/10/14 13:50:26;;;;;;;;;;;;;;;;;;5022179;28;787;-75
2022/10/14 13:52:55;;;;;;;;;;;;;;;;;;5022570;28;990;-75
2022/10/14 13:55:22;;;;;;;;;;;;;;;;;;5022546;28;819;-75
2022/10/14 13:58:00;;;;;;;;;;;;;;;;;;5022599;28;1176;-75
2022/10/14 14:00:27;;;;;;;;;;;;;;;;;;5022461;28;973;-75
2022/10/14 14:02:52;;;;;;;;;;;;;;;;;;5022560;28;866;-75
2022/10/14 14:05:18;;;;;;;;;;;;;;;;;;5022138;28;930;-75
2022/10/14 14:07:44;;;;;;;;;;;;;;;;;;5022272;28;1902;-76
2022/10/14 14:10:10;;;;;;;;;;;;;;;;;;5022328;28;803;-76
2022/10/14 14:12:35;;;;;;;;;;;;;;;;;;5022492;28;977;-76
2022/10/14 14:15:00;;;;;;;;;;;;;;;;;;5022316;28;839;-76
2022/10/14 14:17:26;;;;;;;;;;;;;;;;;;5022347;28;1168;-75
2022/10/14 14:19:51;;;;;;;;;;;;;;;;;;5022009;28;1046;-75
2022/10/14 14:22:23;;;;;;;;;;;;;;;;;;5022291;28;816;-75
2022/10/14 14:24:48;;;;;;;;;;;;;;;;;;5021751;28;792;-76
2022/10/14 14:27:18;;;;;;;;;;;;;;;;;;5022018;28;1898;-76
2022/10/14 14:29:43;;;;;;;;;;;;;;;;;;5022023;28;850;-75
2022/10/14 14:32:16;;;;;;;;;;;;;;;;;;5022030;28;796;-75
2022/10/14 14:34:44;;;;;;;;;;;;;;;;;;5003955;28;885;-75
2022/10/14 14:37:14;;;;;;;;;;;;;;;;;;5004253;28;1196;-75
2022/10/14 14:39:39;;;;;;;;;;;;;;;;;;5021851;28;1013;-75
2022/10/14 14:42:08;;;;;;;;;;;;;;;;;;5022059;28;780;-75
2022/10/14 14:44:33;;;;;;;;;;;;;;;;;;5021613;28;1063;-75
2022/10/14 14:47:00;;;;;;;;;;;;;;;;;;5021580;28;1956;-75
2022/10/14 14:49:30;;;;;;;;;;;;;;;;;;5021661;28;795;-75
2022/10/14 14:51:56;;;;;;;;;;;;;;;;;;5021634;28;732;-75
2022/10/14 14:54:22;;;;;;;;;;;;;;;;;;5021636;28;784;-75
2022/10/14 14:56:59;;;;;;;;;;;;;;;;;;5021272;28;1164;-75
2022/10/14 14:59:28;;;;;;;;;;;;;;;;;;5021505;28;901;-75
2022/10/14 15:01:58;;;;;;;;;;;;;;;;;;5021154;28;997;-74
2022/10/14 15:04:24;;;;;;;;;;;;;;;;;;5020722;28;788;-75
2022/10/14 15:06:58;;;;;;;;;;;;;;;;;;5021475;28;1971;-76
2022/10/14 15:09:44;;;;;;;;;;;;;;;;;;5003918;28;899;-75
2022/10/14 15:12:40;;;;;;;;;;;;;;;;;;5020480;28;1212;-74
2022/10/14 15:15:22;;;;;;;;;;;;;;;;;;5019748;28;1215;-75
2022/10/14 15:18:03;;;;;;;;;;;;;;;;;;5021228;28;1261;-75
2022/10/14 15:20:29;;;;;;;;;;;;;;;;;;5021060;28;1009;-75
2022/10/14 15:22:54;;;;;;;;;;;;;;;;;;5021654;28;811;-75
2022/10/14 15:25:20;;;;;;;;;;;;;;;;;;5003113;28;890;-75
2022/10/14 15:27:49;;;;;;;;;;;;;;;;;;5021223;28;1901;-75
2022/10/14 15:30:15;;;;;;;;;;;;;;;;;;5021212;28;906;-75
2022/10/14 15:32:40;;;;;;;;;;;;;;;;;;5021114;28;882;-75
2022/10/14 15:35:07;;;;;;;;;;;;;;;;;;5020735;28;1033;-75
2022/10/14 15:37:32;;;;;;;;;;;;;;;;;;5020988;28;1133;-75
2022/10/14 15:40:02;;;;;;;;;;;;;;;;;;5021173;28;796;-76
2022/10/14 15:42:27;;;;;;;;;;;;;;;;;;5003152;28;1393;-75
2022/10/14 15:44:52;;;;;;;;;;;;;;;;;;5020615;28;809;-75
2022/10/14 15:47:20;;;;;;;;;;;;;;;;;;5020922;28;1894;-75
2022/10/14 15:49:45;;;;;;;;;;;;;;;;;;5021215;28;803;-75
2022/10/14 15:52:14;;;;;;;;;;;;;;;;;;5020644;28;804;-75
2022/10/14 15:54:40;;;;;;;;;;;;;;;;;;5020671;28;811;-75
2022/10/14 15:57:05;;;;;;;;;;;;;;;;;;5020668;28;1148;-75
2022/10/14 15:59:30;;;;;;;;;;;;;;;;;;5020766;28;849;-75
2022/10/14 16:01:56;;;;;;;;;;;;;;;;;;5020447;28;788;-75
2022/10/14 16:04:23;;;;;;;;;;;;;;;;;;5003007;28;1261;-75
2022/10/14 16:06:49;;;;;;;;;;;;;;;;;;5020374;28;1910;-75
2022/10/14 16:09:14;;;;;;;;;;;;;;;;;;5020548;28;768;-74
2022/10/14 16:11:39;;;;;;;;;;;;;;;;;;5020686;28;990;-75
2022/10/14 16:14:06;;;;;;;;;;;;;;;;;;5021394;28;911;-75
2022/10/14 16:16:35;;;;;;;;;;;;;;;;;;5033225;28;1283;-76
2022/10/14 16:19:01;;;;;;;;;;;;;;;;;;5028080;28;859;-74
2022/10/14 16:21:28;;;;;;;;;;;;;;;;;;5024028;28;828;-75
2022/10/14 16:23:53;;;;;;;;;;;;;;;;;;5024179;28;812;-75
2022/10/14 16:26:19;;;;;;;;;;;;;;;;;;5023738;28;1906;-75
2022/10/14 16:28:44;;;;;;;;;;;;;;;;;;5024115;28;1228;-75
2022/10/14 16:31:11;;;;;;;;;;;;;;;;;;5023934;28;832;-75
2022/10/14 16:33:36;;;;;;;;;;;;;;;;;;5023920;28;890;-74
2022/10/14 16:36:05;;;;;;;;;;;;;;;;;;5023698;28;800;-75
2022/10/14 16:38:31;;;;;;;;;;;;;;;;;;5006005;28;1240;-74
2022/10/14 16:40:57;;;;;;;;;;;;;;;;;;5023923;28;831;-74
2022/10/14 16:43:23;;;;;;;;;;;;;;;;;;5023542;28;1072;-74
2022/10/14 16:45:48;;;;;;;;;;;;;;;;;;5023202;28;1894;-74
2022/10/14 16:48:14;;;;;;;;;;;;;;;;;;5023313;28;1185;-74
2022/10/14 16:50:39;;;;;;;;;;;;;;;;;;5023623;28;890;-74
2022/10/14 16:55:48;;;;;;;;;;;;;;;;;;5023387;28;629;-74
2022/10/14 16:58:13;;;;;;;;;;;;;;;;;;5023064;28;1255;-74
2022/10/14 17:00:39;;;;;;;;;;;;;;;;;;5023487;28;994;-74
2022/10/14 17:03:04;;;;;;;;;;;;;;;;;;5023392;28;833;-74
2022/10/14 17:05:29;;;;;;;;;;;;;;;;;;5023220;28;887;-74
2022/10/14 17:07:54;;;;;;;;;;;;;;;;;;5023180;28;1976;-74
2022/10/14 17:10:20;;;;;;;;;;;;;;;;;;5023322;28;815;-75
2022/10/14 17:12:45;;;;;;;;;;;;;;;;;;5023251;28;876;-75
2022/10/14 17:15:11;;;;;;;;;;;;;;;;;;5022972;28;835;-74
2022/10/14 17:17:38;;;;;;;;;;;;;;;;;;5023012;28;1165;-74
2022/10/14 17:20:04;;;;;;;;;;;;;;;;;;5023214;28;898;-75
2022/10/14 17:22:29;;;;;;;;;;;;;;;;;;5023604;28;1053;-75
2022/10/14 17:24:54;;;;;;;;;;;;;;;;;;5023030;28;842;-75
2022/10/14 17:27:22;;;;;;;;;;;;;;;;;;5022040;28;1906;-74